sensor_id;sensor_type;location;lat;lon;timestamp;pressure;altitude;pressure_sealevel;temperature;humidity
6567;BME280;3317;43.994;22.878;2023-02-12T00:01:47;102121.47;;;3.04;52.10
6567;BME280;3317;43.994;22.878;2023-02-12T00:04:14;102115.00;;;3.08;52.14
6567;BME280;3317;43.994;22.878;2023-02-12T00:06:43;102114.44;;;3.01;52.13
6567;BME280;3317;43.994;22.878;2023-02-12T00:09:10;102118.84;;;3.02;52.34
6567;BME280;3317;43.994;22.878;2023-02-12T00:11:37;102121.31;;;3.07;52.18
6567;BME280;3317;43.994;22.878;2023-02-12T00:14:04;102121.41;;;3.05;51.91
6567;BME280;3317;43.994;22.878;2023-02-12T00:16:31;102129.44;;;3.05;52.09
6567;BME280;3317;43.994;22.878;2023-02-12T00:18:59;102123.72;;;3.13;52.14
6567;BME280;3317;43.994;22.878;2023-02-12T00:21:26;102110.44;;;3.10;51.97
6567;BME280;3317;43.994;22.878;2023-02-12T00:23:54;102102.56;;;3.07;52.01
6567;BME280;3317;43.994;22.878;2023-02-12T00:26:22;102103.34;;;3.09;51.88
6567;BME280;3317;43.994;22.878;2023-02-12T00:28:49;102013.56;;;2.62;51.49
6567;BME280;3317;43.994;22.878;2023-02-12T00:31:18;102104.09;;;3.13;51.20
6567;BME280;3317;43.994;22.878;2023-02-12T00:33:45;102098.00;;;3.09;51.09
6567;BME280;3317;43.994;22.878;2023-02-12T00:36:15;102086.13;;;3.15;50.75
6567;BME280;3317;43.994;22.878;2023-02-12T00:38:42;102079.56;;;3.22;50.39
6567;BME280;3317;43.994;22.878;2023-02-12T00:41:11;102083.09;;;3.22;50.20
6567;BME280;3317;43.994;22.878;2023-02-12T00:43:38;102082.13;;;3.23;50.47
6567;BME280;3317;43.994;22.878;2023-02-12T00:46:05;102075.78;;;3.26;50.31
6567;BME280;3317;43.994;22.878;2023-02-12T00:48:33;102003.47;;;2.88;50.14
6567;BME280;3317;43.994;22.878;2023-02-12T00:51:01;102067.38;;;3.34;50.15
6567;BME280;3317;43.994;22.878;2023-02-12T00:53:28;102053.38;;;3.27;50.04
6567;BME280;3317;43.994;22.878;2023-02-12T00:55:55;102068.16;;;3.36;50.23
6567;BME280;3317;43.994;22.878;2023-02-12T00:58:23;102058.25;;;3.38;49.93
6567;BME280;3317;43.994;22.878;2023-02-12T01:00:50;102074.72;;;3.30;50.05
6567;BME280;3317;43.994;22.878;2023-02-12T01:03:17;102075.34;;;3.35;49.80
6567;BME280;3317;43.994;22.878;2023-02-12T01:05:45;102071.56;;;3.40;49.97
6567;BME280;3317;43.994;22.878;2023-02-12T01:08:12;102075.91;;;3.42;49.70
6567;BME280;3317;43.994;22.878;2023-02-12T01:10:40;102071.34;;;3.44;49.96
6567;BME280;3317;43.994;22.878;2023-02-12T01:13:09;102082.13;;;3.43;50.02
6567;BME280;3317;43.994;22.878;2023-02-12T01:15:39;102092.00;;;3.42;50.09
6567;BME280;3317;43.994;22.878;2023-02-12T01:18:06;102080.16;;;3.46;50.13
6567;BME280;3317;43.994;22.878;2023-02-12T01:20:33;102084.97;;;3.40;50.18
6567;BME280;3317;43.994;22.878;2023-02-12T01:23:00;102092.28;;;3.36;50.34
6567;BME280;3317;43.994;22.878;2023-02-12T01:25:27;102092.94;;;3.41;50.65
6567;BME280;3317;43.994;22.878;2023-02-12T01:27:53;102091.06;;;3.43;50.53
6567;BME280;3317;43.994;22.878;2023-02-12T01:30:20;102079.44;;;3.43;50.85
6567;BME280;3317;43.994;22.878;2023-02-12T01:32:50;102073.06;;;3.45;50.70
6567;BME280;3317;43.994;22.878;2023-02-12T01:35:17;102065.81;;;3.47;50.98
6567;BME280;3317;43.994;22.878;2023-02-12T01:37:44;102084.97;;;3.40;50.88
6567;BME280;3317;43.994;22.878;2023-02-12T01:40:14;102097.28;;;3.44;50.62
6567;BME280;3317;43.994;22.878;2023-02-12T01:42:43;102105.41;;;3.42;50.73
6567;BME280;3317;43.994;22.878;2023-02-12T01:48:17;102085.84;;;3.40;50.49
6567;BME280;3317;43.994;22.878;2023-02-12T01:50:47;102087.38;;;3.46;50.58
6567;BME280;3317;43.994;22.878;2023-02-12T01:53:15;102082.13;;;3.43;50.70
6567;BME280;3317;43.994;22.878;2023-02-12T01:55:46;102035.44;;;3.10;50.59
6567;BME280;3317;43.994;22.878;2023-02-12T01:58:14;102082.06;;;3.44;50.71
6567;BME280;3317;43.994;22.878;2023-02-12T02:00:42;102069.59;;;3.43;50.47
6567;BME280;3317;43.994;22.878;2023-02-12T02:03:09;102079.31;;;3.46;50.27
6567;BME280;3317;43.994;22.878;2023-02-12T02:05:43;102078.38;;;3.47;50.39
6567;BME280;3317;43.994;22.878;2023-02-12T02:08:12;102079.09;;;3.50;50.24
6567;BME280;3317;43.994;22.878;2023-02-12T02:10:39;102080.03;;;3.49;50.14
6567;BME280;3317;43.994;22.878;2023-02-12T02:13:06;102069.16;;;3.52;50.01
6567;BME280;3317;43.994;22.878;2023-02-12T02:15:55;102079.16;;;3.49;50.11
6567;BME280;3317;43.994;22.878;2023-02-12T02:18:31;102086.25;;;3.50;49.71
6567;BME280;3317;43.994;22.878;2023-02-12T02:21:34;102086.19;;;3.51;49.73
6567;BME280;3317;43.994;22.878;2023-02-12T02:27:15;102090.69;;;3.51;49.88
6567;BME280;3317;43.994;22.878;2023-02-12T02:32:48;102093.34;;;3.51;49.89
6567;BME280;3317;43.994;22.878;2023-02-12T02:35:23;102099.59;;;3.51;49.80
6567;BME280;3317;43.994;22.878;2023-02-12T02:38:03;102098.72;;;3.51;50.12
6567;BME280;3317;43.994;22.878;2023-02-12T02:40:38;102098.50;;;3.56;50.07
6567;BME280;3317;43.994;22.878;2023-02-12T02:43:09;102096.44;;;3.61;49.85
6567;BME280;3317;43.994;22.878;2023-02-12T02:45:42;102095.81;;;3.56;50.13
6567;BME280;3317;43.994;22.878;2023-02-12T02:48:15;102090.53;;;3.54;49.95
6567;BME280;3317;43.994;22.878;2023-02-12T02:50:46;102086.03;;;3.55;49.71
6567;BME280;3317;43.994;22.878;2023-02-12T02:53:17;102087.56;;;3.60;49.82
6567;BME280;3317;43.994;22.878;2023-02-12T02:55:49;102090.13;;;3.62;49.93
6567;BME280;3317;43.994;22.878;2023-02-12T02:58:19;102095.44;;;3.63;49.91
6567;BME280;3317;43.994;22.878;2023-02-12T03:00:51;102095.75;;;3.57;49.89
6567;BME280;3317;43.994;22.878;2023-02-12T03:03:24;102093.06;;;3.57;50.11
6567;BME280;3317;43.994;22.878;2023-02-12T03:05:55;102098.34;;;3.59;49.89
6567;BME280;3317;43.994;22.878;2023-02-12T03:08:28;102102.97;;;3.55;50.22
6567;BME280;3317;43.994;22.878;2023-02-12T03:11:03;102094.72;;;3.60;50.22
6567;BME280;3317;43.994;22.878;2023-02-12T03:13:33;102088.13;;;3.67;50.16
6567;BME280;3317;43.994;22.878;2023-02-12T03:16:06;102084.72;;;3.63;49.82
6567;BME280;3317;43.994;22.878;2023-02-12T03:18:40;102093.66;;;3.64;49.68
6567;BME280;3317;43.994;22.878;2023-02-12T03:21:12;102101.75;;;3.62;49.24
6567;BME280;3317;43.994;22.878;2023-02-12T03:23:46;102094.44;;;3.66;49.06
6567;BME280;3317;43.994;22.878;2023-02-12T03:26:18;102107.06;;;3.64;48.52
6567;BME280;3317;43.994;22.878;2023-02-12T03:28:47;102104.69;;;3.75;48.38
6567;BME280;3317;43.994;22.878;2023-02-12T03:31:19;102115.28;;;3.78;48.46
6567;BME280;3317;43.994;22.878;2023-02-12T03:34:03;102108.03;;;3.80;48.58
6567;BME280;3317;43.994;22.878;2023-02-12T03:36:40;102117.47;;;3.88;48.63
6567;BME280;3317;43.994;22.878;2023-02-12T03:39:14;102117.47;;;3.88;48.53
6567;BME280;3317;43.994;22.878;2023-02-12T03:41:46;102117.34;;;3.91;48.42
6567;BME280;3317;43.994;22.878;2023-02-12T03:44:21;102117.19;;;3.94;48.12
6567;BME280;3317;43.994;22.878;2023-02-12T03:46:56;102105.34;;;3.98;47.90
6567;BME280;3317;43.994;22.878;2023-02-12T03:49:29;102110.72;;;3.98;47.91
6567;BME280;3317;43.994;22.878;2023-02-12T03:51:58;102109.09;;;3.96;47.66
6567;BME280;3317;43.994;22.878;2023-02-12T03:54:25;102109.47;;;4.05;48.01
6567;BME280;3317;43.994;22.878;2023-02-12T03:56:55;102118.16;;;4.11;47.93
6567;BME280;3317;43.994;22.878;2023-02-12T03:59:24;102116.41;;;4.09;48.28
6567;BME280;3317;43.994;22.878;2023-02-12T04:01:53;102111.16;;;4.08;48.07
6567;BME280;3317;43.994;22.878;2023-02-12T04:04:22;102109.16;;;4.12;47.84
6567;BME280;3317;43.994;22.878;2023-02-12T04:06:52;102113.75;;;4.09;47.84
6567;BME280;3317;43.994;22.878;2023-02-12T04:09:21;102113.50;;;4.14;47.69
6567;BME280;3317;43.994;22.878;2023-02-12T04:12:29;102112.88;;;4.09;47.69
6567;BME280;3317;43.994;22.878;2023-02-12T04:15:17;102122.56;;;4.12;47.52
6567;BME280;3317;43.994;22.878;2023-02-12T04:17:51;102127.72;;;4.16;47.65
6567;BME280;3317;43.994;22.878;2023-02-12T04:20:25;102127.81;;;4.15;47.89
6567;BME280;3317;43.994;22.878;2023-02-12T04:23:03;102119.81;;;4.13;47.99
6567;BME280;3317;43.994;22.878;2023-02-12T04:25:43;102123.34;;;4.14;48.02
6567;BME280;3317;43.994;22.878;2023-02-12T04:28:22;102124.88;;;4.19;47.93
6567;BME280;3317;43.994;22.878;2023-02-12T04:30:58;102121.34;;;4.19;47.70
6567;BME280;3317;43.994;22.878;2023-02-12T04:33:27;102129.28;;;4.20;48.04
6567;BME280;3317;43.994;22.878;2023-02-12T04:36:02;102116.81;;;4.19;48.42
6567;BME280;3317;43.994;22.878;2023-02-12T04:38:37;102115.97;;;4.19;48.17
6567;BME280;3317;43.994;22.878;2023-02-12T04:41:06;102110.75;;;4.16;48.22
6567;BME280;3317;43.994;22.878;2023-02-12T04:43:36;102112.50;;;4.17;48.10
6567;BME280;3317;43.994;22.878;2023-02-12T04:46:06;102113.44;;;4.16;48.05
6567;BME280;3317;43.994;22.878;2023-02-12T04:48:34;102108.16;;;4.14;47.91
6567;BME280;3317;43.994;22.878;2023-02-12T04:51:02;102118.81;;;4.16;47.92
6567;BME280;3317;43.994;22.878;2023-02-12T04:53:29;102128.59;;;4.17;48.33
6567;BME280;3317;43.994;22.878;2023-02-12T04:55:57;102128.66;;;4.15;48.47
6567;BME280;3317;43.994;22.878;2023-02-12T04:58:24;102127.00;;;4.13;48.34
6567;BME280;3317;43.994;22.878;2023-02-12T05:00:51;102127.88;;;4.13;48.28
6567;BME280;3317;43.994;22.878;2023-02-12T05:03:17;102134.25;;;4.11;47.94
6567;BME280;3317;43.994;22.878;2023-02-12T05:05:44;102124.47;;;4.09;48.31
6567;BME280;3317;43.994;22.878;2023-02-12T05:08:11;102133.25;;;4.13;48.36
6567;BME280;3317;43.994;22.878;2023-02-12T05:10:38;102135.38;;;4.06;48.34
6567;BME280;3317;43.994;22.878;2023-02-12T05:13:06;102135.44;;;4.05;48.55
6567;BME280;3317;43.994;22.878;2023-02-12T05:15:33;102140.06;;;4.01;48.77
6567;BME280;3317;43.994;22.878;2023-02-12T05:18:00;102141.75;;;4.04;48.69
6567;BME280;3317;43.994;22.878;2023-02-12T05:20:27;102136.69;;;3.98;49.14
6567;BME280;3317;43.994;22.878;2023-02-12T05:22:55;102139.22;;;4.01;49.41
6567;BME280;3317;43.994;22.878;2023-02-12T05:25:22;102145.53;;;4.00;49.92
6567;BME280;3317;43.994;22.878;2023-02-12T05:27:49;102154.38;;;4.02;49.83
6567;BME280;3317;43.994;22.878;2023-02-12T05:30:18;102145.38;;;4.03;49.52
6567;BME280;3317;43.994;22.878;2023-02-12T05:32:45;102150.50;;;4.07;49.94
6567;BME280;3317;43.994;22.878;2023-02-12T05:35:12;102154.31;;;4.03;50.18
6567;BME280;3317;43.994;22.878;2023-02-12T05:37:38;102155.09;;;4.05;50.36
6567;BME280;3317;43.994;22.878;2023-02-12T05:40:06;102173.00;;;4.05;50.88
6567;BME280;3317;43.994;22.878;2023-02-12T05:42:33;102173.88;;;4.05;50.65
6567;BME280;3317;43.994;22.878;2023-02-12T05:45:00;102173.09;;;4.03;50.33
6567;BME280;3317;43.994;22.878;2023-02-12T05:47:29;102173.22;;;4.00;50.45
6567;BME280;3317;43.994;22.878;2023-02-12T05:49:55;102177.78;;;3.98;50.78
6567;BME280;3317;43.994;22.878;2023-02-12T05:52:22;102186.78;;;3.97;50.72
6567;BME280;3317;43.994;22.878;2023-02-12T05:54:49;102188.53;;;3.98;50.92
6567;BME280;3317;43.994;22.878;2023-02-12T05:57:16;102191.19;;;3.98;51.05
6567;BME280;3317;43.994;22.878;2023-02-12T05:59:43;102199.19;;;4.00;51.13
6567;BME280;3317;43.994;22.878;2023-02-12T06:02:10;102198.31;;;3.99;50.83
6567;BME280;3317;43.994;22.878;2023-02-12T06:04:38;102202.66;;;4.02;50.95
6567;BME280;3317;43.994;22.878;2023-02-12T06:07:05;102211.59;;;4.02;51.05
6567;BME280;3317;43.994;22.878;2023-02-12T06:09:32;102217.81;;;4.03;51.37
6567;BME280;3317;43.994;22.878;2023-02-12T06:12:00;102213.41;;;4.02;51.48
6567;BME280;3317;43.994;22.878;2023-02-12T06:14:26;102213.34;;;4.03;51.54
6567;BME280;3317;43.994;22.878;2023-02-12T06:16:53;102214.13;;;4.05;51.70
6567;BME280;3317;43.994;22.878;2023-02-12T06:19:20;102218.69;;;4.03;51.92
6567;BME280;3317;43.994;22.878;2023-02-12T06:21:50;102215.91;;;4.05;52.04
6567;BME280;3317;43.994;22.878;2023-02-12T06:24:17;102227.38;;;4.08;52.00
6567;BME280;3317;43.994;22.878;2023-02-12T06:26:44;102237.94;;;4.12;52.42
6567;BME280;3317;43.994;22.878;2023-02-12T06:29:28;102189.13;;;3.86;52.29
6567;BME280;3317;43.994;22.878;2023-02-12T06:31:55;102229.63;;;4.18;52.67
6567;BME280;3317;43.994;22.878;2023-02-12T06:34:22;102229.41;;;4.22;52.83
6567;BME280;3317;43.994;22.878;2023-02-12T06:36:50;102234.03;;;4.19;53.35
6567;BME280;3317;43.994;22.878;2023-02-12T06:39:17;102244.56;;;4.23;53.34
6567;BME280;3317;43.994;22.878;2023-02-12T06:41:44;102239.09;;;4.25;53.69
6567;BME280;3317;43.994;22.878;2023-02-12T06:44:11;102239.88;;;4.27;53.76
6567;BME280;3317;43.994;22.878;2023-02-12T06:46:38;102249.38;;;4.34;53.47
6567;BME280;3317;43.994;22.878;2023-02-12T06:49:05;102260.13;;;4.34;53.97
6567;BME280;3317;43.994;22.878;2023-02-12T06:51:32;102260.91;;;4.36;54.06
6567;BME280;3317;43.994;22.878;2023-02-12T06:54:02;102266.78;;;4.45;54.24
6567;BME280;3317;43.994;22.878;2023-02-12T06:56:29;102262.25;;;4.45;53.97
6567;BME280;3317;43.994;22.878;2023-02-12T06:58:58;102285.19;;;4.53;53.96
6567;BME280;3317;43.994;22.878;2023-02-12T07:01:27;102295.72;;;4.57;54.50
6567;BME280;3317;43.994;22.878;2023-02-12T07:03:56;102279.81;;;4.53;54.65
6567;BME280;3317;43.994;22.878;2023-02-12T07:06:24;102293.88;;;4.58;54.82
6567;BME280;3317;43.994;22.878;2023-02-12T07:08:52;102295.25;;;4.67;55.02
6567;BME280;3317;43.994;22.878;2023-02-12T07:11:23;102297.69;;;4.71;55.02
6567;BME280;3317;43.994;22.878;2023-02-12T07:13:50;102299.97;;;4.79;55.31
6567;BME280;3317;43.994;22.878;2023-02-12T07:16:17;102302.44;;;4.84;55.38
6567;BME280;3317;43.994;22.878;2023-02-12T07:18:45;102299.63;;;4.87;55.07
6567;BME280;3317;43.994;22.878;2023-02-12T07:21:13;102294.38;;;4.84;55.59
6567;BME280;3317;43.994;22.878;2023-02-12T07:23:41;102285.47;;;4.83;55.63
6567;BME280;3317;43.994;22.878;2023-02-12T07:26:12;102308.69;;;5.02;55.47
6567;BME280;3317;43.994;22.878;2023-02-12T07:28:42;102315.81;;;5.03;55.86
6567;BME280;3317;43.994;22.878;2023-02-12T07:31:11;102319.22;;;5.06;55.62
6567;BME280;3317;43.994;22.878;2023-02-12T07:33:39;102329.56;;;5.14;55.96
6567;BME280;3317;43.994;22.878;2023-02-12T07:36:08;102332.03;;;5.19;56.08
6567;BME280;3317;43.994;22.878;2023-02-12T07:38:35;102325.47;;;5.25;56.16
6567;BME280;3317;43.994;22.878;2023-02-12T07:41:08;102323.72;;;5.24;56.16
6567;BME280;3317;43.994;22.878;2023-02-12T07:43:37;102329.31;;;5.36;56.17
6567;BME280;3317;43.994;22.878;2023-02-12T07:46:09;102331.63;;;5.44;56.18
6567;BME280;3317;43.994;22.878;2023-02-12T07:48:36;102324.16;;;5.49;55.73
6567;BME280;3317;43.994;22.878;2023-02-12T07:51:05;102333.72;;;5.55;55.61
6567;BME280;3317;43.994;22.878;2023-02-12T07:53:32;102338.78;;;5.61;55.72
6567;BME280;3317;43.994;22.878;2023-02-12T07:56:08;102340.25;;;5.67;55.54
6567;BME280;3317;43.994;22.878;2023-02-12T07:58:36;102336.13;;;5.77;55.41
6567;BME280;3317;43.994;22.878;2023-02-12T08:01:16;102345.75;;;5.82;55.46
6567;BME280;3317;43.994;22.878;2023-02-12T08:03:43;102322.16;;;5.71;55.33
6567;BME280;3317;43.994;22.878;2023-02-12T08:06:12;102345.28;;;5.91;55.45
6567;BME280;3317;43.994;22.878;2023-02-12T08:08:40;102292.56;;;5.71;57.53
6567;BME280;3317;43.994;22.878;2023-02-12T08:11:08;102345.34;;;6.07;56.78
6567;BME280;3317;43.994;22.878;2023-02-12T08:13:36;102338.56;;;6.16;55.77
6567;BME280;3317;43.994;22.878;2023-02-12T08:16:06;102346.47;;;6.19;55.38
6567;BME280;3317;43.994;22.878;2023-02-12T08:18:35;102357.75;;;6.26;54.81
6567;BME280;3317;43.994;22.878;2023-02-12T08:21:02;102355.72;;;6.31;54.94
6567;BME280;3317;43.994;22.878;2023-02-12T08:23:30;102356.41;;;6.34;55.15
6567;BME280;3317;43.994;22.878;2023-02-12T08:26:08;102354.13;;;6.43;54.90
6567;BME280;3317;43.994;22.878;2023-02-12T08:28:37;102284.38;;;6.06;54.73
6567;BME280;3317;43.994;22.878;2023-02-12T08:31:06;102367.69;;;6.57;54.65
6567;BME280;3317;43.994;22.878;2023-02-12T08:33:35;102367.41;;;6.62;54.75
6567;BME280;3317;43.994;22.878;2023-02-12T08:36:03;102353.88;;;6.64;54.44
6567;BME280;3317;43.994;22.878;2023-02-12T08:38:31;102366.78;;;6.73;54.70
6567;BME280;3317;43.994;22.878;2023-02-12T08:41:03;102368.28;;;6.79;54.20
6567;BME280;3317;43.994;22.878;2023-02-12T08:43:30;102362.63;;;6.83;54.27
6567;BME280;3317;43.994;22.878;2023-02-12T08:46:01;102368.50;;;6.90;53.97
6567;BME280;3317;43.994;22.878;2023-02-12T08:48:28;102385.31;;;6.95;53.87
6567;BME280;3317;43.994;22.878;2023-02-12T08:51:03;102367.91;;;7.01;58.52
6567;BME280;3317;43.994;22.878;2023-02-12T08:53:30;102383.16;;;7.16;56.21
6567;BME280;3317;43.994;22.878;2023-02-12T08:55:57;102379.13;;;7.24;54.90
6567;BME280;3317;43.994;22.878;2023-02-12T08:58:24;102377.25;;;7.26;53.80
6567;BME280;3317;43.994;22.878;2023-02-12T09:00:51;102370.41;;;7.35;54.11
6567;BME280;3317;43.994;22.878;2023-02-12T09:03:18;102372.44;;;7.45;54.53
6567;BME280;3317;43.994;22.878;2023-02-12T09:05:45;102393.75;;;7.50;53.17
6567;BME280;3317;43.994;22.878;2023-02-12T09:08:13;102411.41;;;7.56;53.69
6567;BME280;3317;43.994;22.878;2023-02-12T09:10:40;102398.69;;;7.58;53.34
6567;BME280;3317;43.994;22.878;2023-02-12T09:13:08;102407.22;;;7.81;53.66
6567;BME280;3317;43.994;22.878;2023-02-12T09:15:36;102410.69;;;7.97;54.39
6567;BME280;3317;43.994;22.878;2023-02-12T09:18:03;102394.28;;;8.00;53.79
6567;BME280;3317;43.994;22.878;2023-02-12T09:20:30;102412.63;;;8.24;53.31
6567;BME280;3317;43.994;22.878;2023-02-12T09:22:57;102419.47;;;8.30;51.62
6567;BME280;3317;43.994;22.878;2023-02-12T09:25:26;102425.81;;;8.43;52.40
6567;BME280;3317;43.994;22.878;2023-02-12T09:27:54;102430.47;;;8.56;52.24
6567;BME280;3317;43.994;22.878;2023-02-12T09:30:21;102413.38;;;8.70;53.70
6567;BME280;3317;43.994;22.878;2023-02-12T09:32:48;102427.94;;;9.09;56.00
6567;BME280;3317;43.994;22.878;2023-02-12T09:35:16;102439.00;;;9.32;55.60
6567;BME280;3317;43.994;22.878;2023-02-12T09:37:44;102437.03;;;9.49;52.49
6567;BME280;3317;43.994;22.878;2023-02-12T09:40:17;102431.94;;;9.57;50.36
6567;BME280;3317;43.994;22.878;2023-02-12T09:42:59;102441.16;;;9.67;50.87
6567;BME280;3317;43.994;22.878;2023-02-12T09:45:31;102364.03;;;9.34;49.99
6567;BME280;3317;43.994;22.878;2023-02-12T09:48:12;102418.88;;;9.77;49.41
6567;BME280;3317;43.994;22.878;2023-02-12T09:50:47;102415.28;;;9.76;48.31
6567;BME280;3317;43.994;22.878;2023-02-12T09:53:18;102438.59;;;9.92;46.99
6567;BME280;3317;43.994;22.878;2023-02-12T09:55:47;102442.59;;;9.99;48.69
6567;BME280;3317;43.994;22.878;2023-02-12T09:58:22;102450.06;;;10.08;49.18
6567;BME280;3317;43.994;22.878;2023-02-12T10:00:55;102444.75;;;10.07;48.21
6567;BME280;3317;43.994;22.878;2023-02-12T10:03:24;102445.50;;;10.22;50.44
6567;BME280;3317;43.994;22.878;2023-02-12T10:05:57;102440.94;;;10.22;48.90
6567;BME280;3317;43.994;22.878;2023-02-12T10:08:53;102463.59;;;10.34;48.53
6567;BME280;3317;43.994;22.878;2023-02-12T10:11:35;102437.16;;;10.25;48.29
6567;BME280;3317;43.994;22.878;2023-02-12T10:17:14;102449.41;;;10.31;47.29
6567;BME280;3317;43.994;22.878;2023-02-12T10:20:11;102455.34;;;10.36;47.75
6567;BME280;3317;43.994;22.878;2023-02-12T10:22:49;102471.50;;;10.37;48.14
6567;BME280;3317;43.994;22.878;2023-02-12T10:25:25;102467.72;;;10.40;48.77
6567;BME280;3317;43.994;22.878;2023-02-12T10:27:55;102459.28;;;10.45;49.04
6567;BME280;3317;43.994;22.878;2023-02-12T10:30:38;102458.00;;;10.50;49.35
6567;BME280;3317;43.994;22.878;2023-02-12T10:33:13;102459.25;;;10.57;50.43
6567;BME280;3317;43.994;22.878;2023-02-12T10:35:43;102454.59;;;10.60;49.66
6567;BME280;3317;43.994;22.878;2023-02-12T10:38:15;102468.91;;;10.62;48.38
6567;BME280;3317;43.994;22.878;2023-02-12T10:40:44;102460.56;;;10.65;48.19
6567;BME280;3317;43.994;22.878;2023-02-12T10:43:12;102461.06;;;10.70;48.28
6567;BME280;3317;43.994;22.878;2023-02-12T10:45:42;102458.25;;;10.72;47.20
6567;BME280;3317;43.994;22.878;2023-02-12T10:48:13;102456.94;;;10.77;48.18
6567;BME280;3317;43.994;22.878;2023-02-12T10:50:50;102447.41;;;10.72;46.34
6567;BME280;3317;43.994;22.878;2023-02-12T10:53:21;102470.66;;;10.63;44.75
6567;BME280;3317;43.994;22.878;2023-02-12T10:55:49;102469.56;;;10.26;44.58
6567;BME280;3317;43.994;22.878;2023-02-12T10:58:19;102453.41;;;9.73;45.28
6567;BME280;3317;43.994;22.878;2023-02-12T11:00:55;102470.41;;;9.62;45.88
6567;BME280;3317;43.994;22.878;2023-02-12T11:03:29;102474.47;;;9.42;46.42
6567;BME280;3317;43.994;22.878;2023-02-12T11:06:12;102459.28;;;9.39;47.38
6567;BME280;3317;43.994;22.878;2023-02-12T11:08:40;102475.25;;;9.57;46.88
6567;BME280;3317;43.994;22.878;2023-02-12T11:11:10;102424.84;;;9.28;46.64
6567;BME280;3317;43.994;22.878;2023-02-12T11:13:39;102468.22;;;9.67;46.74
6567;BME280;3317;43.994;22.878;2023-02-12T11:16:09;102488.47;;;9.62;46.83
6567;BME280;3317;43.994;22.878;2023-02-12T11:18:38;102471.53;;;9.45;46.30
6567;BME280;3317;43.994;22.878;2023-02-12T11:21:06;102466.22;;;9.43;47.42
6567;BME280;3317;43.994;22.878;2023-02-12T11:23:36;102431.53;;;9.23;46.87
6567;BME280;3317;43.994;22.878;2023-02-12T11:26:06;102486.78;;;9.74;47.79
6567;BME280;3317;43.994;22.878;2023-02-12T11:28:52;102472.56;;;9.83;48.42
6567;BME280;3317;43.994;22.878;2023-02-12T11:31:22;102482.16;;;10.02;46.54
6567;BME280;3317;43.994;22.878;2023-02-12T11:34:08;102487.97;;;9.95;45.56
6567;BME280;3317;43.994;22.878;2023-02-12T11:36:36;102434.00;;;9.53;45.13
6567;BME280;3317;43.994;22.878;2023-02-12T11:39:17;102495.47;;;10.05;46.79
6567;BME280;3317;43.994;22.878;2023-02-12T11:41:49;102502.50;;;9.81;44.67
6567;BME280;3317;43.994;22.878;2023-02-12T11:44:19;102501.47;;;9.69;44.74
6567;BME280;3317;43.994;22.878;2023-02-12T11:46:50;102501.81;;;9.65;45.13
6567;BME280;3317;43.994;22.878;2023-02-12T11:49:20;102498.84;;;9.55;45.07
6567;BME280;3317;43.994;22.878;2023-02-12T11:51:49;102498.59;;;9.45;44.30
6567;BME280;3317;43.994;22.878;2023-02-12T11:54:19;102490.41;;;9.32;44.27
6567;BME280;3317;43.994;22.878;2023-02-12T11:56:48;102490.63;;;9.29;44.59
6567;BME280;3317;43.994;22.878;2023-02-12T11:59:30;102474.41;;;9.01;44.97
6567;BME280;3317;43.994;22.878;2023-02-12T12:02:07;102506.53;;;9.06;44.79
6567;BME280;3317;43.994;22.878;2023-02-12T12:04:43;102492.66;;;8.98;44.58
6567;BME280;3317;43.994;22.878;2023-02-12T12:07:15;102490.06;;;8.96;44.12
6567;BME280;3317;43.994;22.878;2023-02-12T12:09:47;102487.47;;;8.80;44.02
6567;BME280;3317;43.994;22.878;2023-02-12T12:12:19;102499.09;;;8.82;44.16
6567;BME280;3317;43.994;22.878;2023-02-12T12:14:51;102499.56;;;8.75;44.05
6567;BME280;3317;43.994;22.878;2023-02-12T12:17:42;102498.03;;;8.56;43.80
6567;BME280;3317;43.994;22.878;2023-02-12T12:20:31;102500.81;;;8.54;43.36
6567;BME280;3317;43.994;22.878;2023-02-12T12:23:05;102504.31;;;8.56;44.03
6567;BME280;3317;43.994;22.878;2023-02-12T12:25:41;102496.78;;;8.62;43.82
6567;BME280;3317;43.994;22.878;2023-02-12T12:28:24;102501.59;;;8.71;43.54
6567;BME280;3317;43.994;22.878;2023-02-12T12:31:05;102507.75;;;8.87;44.29
6567;BME280;3317;43.994;22.878;2023-02-12T12:33:40;102491.91;;;8.96;44.26
6567;BME280;3317;43.994;22.878;2023-02-12T12:36:42;102514.47;;;9.09;42.22
6567;BME280;3317;43.994;22.878;2023-02-12T12:39:17;102513.88;;;9.04;42.19
6567;BME280;3317;43.994;22.878;2023-02-12T12:44:57;102515.63;;;9.05;42.81
6567;BME280;3317;43.994;22.878;2023-02-12T12:47:36;102517.22;;;8.95;42.85
6567;BME280;3317;43.994;22.878;2023-02-12T12:50:33;102519.13;;;8.93;43.18
6567;BME280;3317;43.994;22.878;2023-02-12T12:53:11;102524.53;;;8.93;44.10
6567;BME280;3317;43.994;22.878;2023-02-12T12:56:00;102453.34;;;8.50;43.10
6567;BME280;3317;43.994;22.878;2023-02-12T12:58:38;102534.78;;;8.87;43.36
6567;BME280;3317;43.994;22.878;2023-02-12T13:01:37;102533.34;;;8.82;43.43
6567;BME280;3317;43.994;22.878;2023-02-12T13:04:30;102525.72;;;8.74;43.73
6567;BME280;3317;43.994;22.878;2023-02-12T13:07:18;102541.38;;;8.69;44.20
6567;BME280;3317;43.994;22.878;2023-02-12T13:10:05;102466.63;;;8.24;44.42
6567;BME280;3317;43.994;22.878;2023-02-12T13:12:57;102539.25;;;8.59;44.24
6567;BME280;3317;43.994;22.878;2023-02-12T13:15:32;102549.28;;;8.57;43.97
6567;BME280;3317;43.994;22.878;2023-02-12T13:18:10;102553.94;;;8.55;43.88
6567;BME280;3317;43.994;22.878;2023-02-12T13:20:45;102545.16;;;8.52;43.86
6567;BME280;3317;43.994;22.878;2023-02-12T13:23:21;102547.38;;;8.59;44.64
6567;BME280;3317;43.994;22.878;2023-02-12T13:25:57;102543.00;;;8.57;44.92
6567;BME280;3317;43.994;22.878;2023-02-12T13:28:32;102496.00;;;8.30;44.99
6567;BME280;3317;43.994;22.878;2023-02-12T13:31:01;102538.66;;;8.54;44.78
6567;BME280;3317;43.994;22.878;2023-02-12T13:33:38;102552.97;;;8.56;44.81
6567;BME280;3317;43.994;22.878;2023-02-12T13:36:09;102554.69;;;8.57;45.11
6567;BME280;3317;43.994;22.878;2023-02-12T13:38:42;102555.88;;;8.68;45.33
6567;BME280;3317;43.994;22.878;2023-02-12T13:41:12;102563.00;;;8.69;45.30
6567;BME280;3317;43.994;22.878;2023-02-12T13:43:46;102564.63;;;8.71;45.10
6567;BME280;3317;43.994;22.878;2023-02-12T13:46:23;102567.34;;;8.71;44.85
6567;BME280;3317;43.994;22.878;2023-02-12T13:48:59;102569.38;;;8.68;44.88